LFRK METAR and TAF | Updated Today

LFRK METAR

Caen-Carpiquet Airport

Observation time: 16 min. ago

LFRK 080530Z AUTO 22011KT 9999 -RA SCT017/// SCT029/// BKN047/// ///CB 04/02 Q0995 TEMPO 28020G40KT 2000 TSRAGS

Need help? Read our tutorial on how to read METARs or read the parsed version below.

Caen-Carpiquet Airport (LFRK) METAR

  • Weather conditions on Wed, 08 Dec 2021 05:30:00 +0000 (16 min. ago):
  • Present conditions: Light rain
  • Clouds: Scattered at 518 meters; scattered at 884 meters; broken sky at 1433 meters
  • Visibility: Greater than 10 km
  • Wind: 220 degrees at 11 knots
  • Temperature: 4 celsius
  • Dew point: 2 celsius
  • Pressure: 995 millibars
  • Remarks: None


Useful to know...

LFRK TAF

Caen-Carpiquet Airport

TAF AMD LFRK 071854Z 0718/0724 25015G30KT 9999 BKN020 TEMPO 0718/0720 23025G40KT 3000 SHRA BKN010CB
Observation time: 10:52 hr. ago
Need help? Read our tutorial on how to read TAFs or read the parsed version below.

Parsed version of TAF for Caen-Carpiquet Airport (LFRK)

  • From 07 December at 18:00 UTC, to day 07 of the month at 24:00 UTC
  • Clouds: Broken sky at 610 meters
  • Visibility: Greater than 10 km
  • Wind: 250 degrees at 15
  • Expected to arise temporarily, from 07 December at 18:00 UTC, to day 07 of the month at 20:00 UTC
  • Clouds: Broken sky at 305 meters, cumulonimbus
  • Visibility: 3000 meters
  • Wind: 230 degrees at 25
  • Other: Showers of rain